sensor_id;sensor_type;location;lat;lon;timestamp;temperature;humidity
24448;DHT22;13348;50.984;5.822;2022-12-07T00:01:19;4.60;99.90
24448;DHT22;13348;50.984;5.822;2022-12-07T00:03:47;4.50;99.90
24448;DHT22;13348;50.984;5.822;2022-12-07T00:06:14;4.60;99.90
24448;DHT22;13348;50.984;5.822;2022-12-07T00:08:43;4.60;99.90
24448;DHT22;13348;50.984;5.822;2022-12-07T00:11:12;4.60;99.90
24448;DHT22;13348;50.984;5.822;2022-12-07T00:13:39;4.50;99.90
24448;DHT22;13348;50.984;5.822;2022-12-07T00:16:07;4.50;99.90
24448;DHT22;13348;50.984;5.822;2022-12-07T00:18:35;4.50;99.90
24448;DHT22;13348;50.984;5.822;2022-12-07T00:21:02;4.50;99.90
24448;DHT22;13348;50.984;5.822;2022-12-07T00:23:28;4.50;99.90
24448;DHT22;13348;50.984;5.822;2022-12-07T00:25:55;4.50;99.90
24448;DHT22;13348;50.984;5.822;2022-12-07T00:28:24;4.40;99.90
24448;DHT22;13348;50.984;5.822;2022-12-07T00:30:51;4.40;99.90
24448;DHT22;13348;50.984;5.822;2022-12-07T00:33:17;4.40;99.90
24448;DHT22;13348;50.984;5.822;2022-12-07T00:35:44;4.30;99.90
24448;DHT22;13348;50.984;5.822;2022-12-07T00:38:11;4.20;99.90
24448;DHT22;13348;50.984;5.822;2022-12-07T00:40:38;4.20;99.90
24448;DHT22;13348;50.984;5.822;2022-12-07T00:43:05;4.20;99.90
24448;DHT22;13348;50.984;5.822;2022-12-07T00:45:33;4.20;99.90
24448;DHT22;13348;50.984;5.822;2022-12-07T00:48:00;4.30;99.90
24448;DHT22;13348;50.984;5.822;2022-12-07T00:50:27;4.30;99.90
24448;DHT22;13348;50.984;5.822;2022-12-07T00:52:54;4.40;99.90
24448;DHT22;13348;50.984;5.822;2022-12-07T00:55:21;4.40;99.90
24448;DHT22;13348;50.984;5.822;2022-12-07T00:57:48;4.50;99.90
24448;DHT22;13348;50.984;5.822;2022-12-07T01:00:15;4.50;99.90
24448;DHT22;13348;50.984;5.822;2022-12-07T01:02:43;4.60;99.90
24448;DHT22;13348;50.984;5.822;2022-12-07T01:05:10;4.60;99.90
24448;DHT22;13348;50.984;5.822;2022-12-07T01:07:37;4.60;99.90
24448;DHT22;13348;50.984;5.822;2022-12-07T01:10:04;4.50;99.90
24448;DHT22;13348;50.984;5.822;2022-12-07T01:12:31;4.50;99.90
24448;DHT22;13348;50.984;5.822;2022-12-07T01:14:58;4.50;99.90
24448;DHT22;13348;50.984;5.822;2022-12-07T01:17:25;4.50;99.90
24448;DHT22;13348;50.984;5.822;2022-12-07T01:19:53;4.50;99.90
24448;DHT22;13348;50.984;5.822;2022-12-07T01:22:20;4.50;99.90
24448;DHT22;13348;50.984;5.822;2022-12-07T01:24:47;4.50;99.90
24448;DHT22;13348;50.984;5.822;2022-12-07T01:27:14;4.50;99.90
24448;DHT22;13348;50.984;5.822;2022-12-07T01:29:41;4.50;99.90
24448;DHT22;13348;50.984;5.822;2022-12-07T01:32:08;4.40;99.90
24448;DHT22;13348;50.984;5.822;2022-12-07T01:34:35;4.40;99.90
24448;DHT22;13348;50.984;5.822;2022-12-07T01:37:04;4.40;99.90
24448;DHT22;13348;50.984;5.822;2022-12-07T01:39:31;4.40;99.90
24448;DHT22;13348;50.984;5.822;2022-12-07T01:41:57;4.50;99.90
24448;DHT22;13348;50.984;5.822;2022-12-07T01:44:25;4.40;99.90
24448;DHT22;13348;50.984;5.822;2022-12-07T01:46:52;4.50;99.90
24448;DHT22;13348;50.984;5.822;2022-12-07T01:49:22;4.50;99.90
24448;DHT22;13348;50.984;5.822;2022-12-07T01:51:50;4.50;99.90
24448;DHT22;13348;50.984;5.822;2022-12-07T01:54:19;4.50;99.90
24448;DHT22;13348;50.984;5.822;2022-12-07T01:56:48;4.50;99.90
24448;DHT22;13348;50.984;5.822;2022-12-07T01:59:16;4.50;99.90
24448;DHT22;13348;50.984;5.822;2022-12-07T02:01:44;4.50;99.90
24448;DHT22;13348;50.984;5.822;2022-12-07T02:04:11;4.50;99.90
24448;DHT22;13348;50.984;5.822;2022-12-07T02:06:39;4.50;99.90
24448;DHT22;13348;50.984;5.822;2022-12-07T02:09:07;4.50;99.90
24448;DHT22;13348;50.984;5.822;2022-12-07T02:11:35;4.50;99.90
24448;DHT22;13348;50.984;5.822;2022-12-07T02:14:02;4.50;99.90
24448;DHT22;13348;50.984;5.822;2022-12-07T02:16:31;4.50;99.90
24448;DHT22;13348;50.984;5.822;2022-12-07T02:19:19;4.50;99.90
24448;DHT22;13348;50.984;5.822;2022-12-07T02:21:48;4.50;99.90
24448;DHT22;13348;50.984;5.822;2022-12-07T02:27:09;4.60;99.90
24448;DHT22;13348;50.984;5.822;2022-12-07T02:29:42;4.60;99.90
24448;DHT22;13348;50.984;5.822;2022-12-07T02:32:13;4.50;99.90
24448;DHT22;13348;50.984;5.822;2022-12-07T02:34:42;4.50;99.90
24448;DHT22;13348;50.984;5.822;2022-12-07T02:37:14;4.60;99.90
24448;DHT22;13348;50.984;5.822;2022-12-07T02:39:46;4.50;99.90
24448;DHT22;13348;50.984;5.822;2022-12-07T02:42:16;4.50;99.90
24448;DHT22;13348;50.984;5.822;2022-12-07T02:44:46;4.50;99.90
24448;DHT22;13348;50.984;5.822;2022-12-07T02:47:14;4.50;99.90
24448;DHT22;13348;50.984;5.822;2022-12-07T02:49:42;4.50;99.90
24448;DHT22;13348;50.984;5.822;2022-12-07T02:52:09;4.40;99.90
24448;DHT22;13348;50.984;5.822;2022-12-07T02:54:36;4.50;99.90
24448;DHT22;13348;50.984;5.822;2022-12-07T02:57:06;4.50;99.90
24448;DHT22;13348;50.984;5.822;2022-12-07T02:59:39;4.50;99.90
24448;DHT22;13348;50.984;5.822;2022-12-07T03:02:14;4.40;99.90
24448;DHT22;13348;50.984;5.822;2022-12-07T03:04:45;4.50;99.90
24448;DHT22;13348;50.984;5.822;2022-12-07T03:07:18;4.50;99.90
24448;DHT22;13348;50.984;5.822;2022-12-07T03:09:51;4.60;99.90
24448;DHT22;13348;50.984;5.822;2022-12-07T03:12:20;4.60;99.90
24448;DHT22;13348;50.984;5.822;2022-12-07T03:14:49;4.60;99.90
24448;DHT22;13348;50.984;5.822;2022-12-07T03:17:21;4.60;99.90
24448;DHT22;13348;50.984;5.822;2022-12-07T03:19:50;4.60;99.90
24448;DHT22;13348;50.984;5.822;2022-12-07T03:22:18;4.60;99.90
24448;DHT22;13348;50.984;5.822;2022-12-07T03:24:46;4.50;99.90
24448;DHT22;13348;50.984;5.822;2022-12-07T03:27:16;4.50;99.90
24448;DHT22;13348;50.984;5.822;2022-12-07T03:29:43;4.50;99.90
24448;DHT22;13348;50.984;5.822;2022-12-07T03:32:13;4.50;99.90
24448;DHT22;13348;50.984;5.822;2022-12-07T03:34:44;4.50;99.90
24448;DHT22;13348;50.984;5.822;2022-12-07T03:37:13;4.50;99.90
24448;DHT22;13348;50.984;5.822;2022-12-07T03:39:44;4.50;99.90
24448;DHT22;13348;50.984;5.822;2022-12-07T03:42:12;4.50;99.90
24448;DHT22;13348;50.984;5.822;2022-12-07T03:44:39;4.40;99.90
24448;DHT22;13348;50.984;5.822;2022-12-07T03:47:08;4.40;99.90
24448;DHT22;13348;50.984;5.822;2022-12-07T03:49:40;4.40;99.90
24448;DHT22;13348;50.984;5.822;2022-12-07T03:52:13;4.40;99.90
24448;DHT22;13348;50.984;5.822;2022-12-07T03:54:43;4.40;99.90
24448;DHT22;13348;50.984;5.822;2022-12-07T03:57:11;4.40;99.90
24448;DHT22;13348;50.984;5.822;2022-12-07T03:59:39;4.50;99.90
24448;DHT22;13348;50.984;5.822;2022-12-07T04:02:07;4.40;99.90
24448;DHT22;13348;50.984;5.822;2022-12-07T04:04:34;4.50;99.90
24448;DHT22;13348;50.984;5.822;2022-12-07T04:07:01;4.50;99.90
24448;DHT22;13348;50.984;5.822;2022-12-07T04:09:29;4.50;99.90
24448;DHT22;13348;50.984;5.822;2022-12-07T04:11:56;4.50;99.90
24448;DHT22;13348;50.984;5.822;2022-12-07T04:14:23;4.50;99.90
24448;DHT22;13348;50.984;5.822;2022-12-07T04:16:51;4.40;99.90
24448;DHT22;13348;50.984;5.822;2022-12-07T04:19:19;4.40;99.90
24448;DHT22;13348;50.984;5.822;2022-12-07T04:21:46;4.40;99.90
24448;DHT22;13348;50.984;5.822;2022-12-07T04:24:13;4.30;99.90
24448;DHT22;13348;50.984;5.822;2022-12-07T04:26:42;4.20;99.90
24448;DHT22;13348;50.984;5.822;2022-12-07T04:29:10;4.20;99.90
24448;DHT22;13348;50.984;5.822;2022-12-07T04:31:37;4.20;99.90
24448;DHT22;13348;50.984;5.822;2022-12-07T04:34:04;4.30;99.90
24448;DHT22;13348;50.984;5.822;2022-12-07T04:36:31;4.30;99.90
24448;DHT22;13348;50.984;5.822;2022-12-07T04:38:58;4.30;99.90
24448;DHT22;13348;50.984;5.822;2022-12-07T04:41:25;4.30;99.90
24448;DHT22;13348;50.984;5.822;2022-12-07T04:43:55;4.30;99.90
24448;DHT22;13348;50.984;5.822;2022-12-07T04:46:22;4.30;99.90
24448;DHT22;13348;50.984;5.822;2022-12-07T04:48:49;4.40;99.90
24448;DHT22;13348;50.984;5.822;2022-12-07T04:51:18;4.30;99.90
24448;DHT22;13348;50.984;5.822;2022-12-07T04:53:45;4.30;99.90
24448;DHT22;13348;50.984;5.822;2022-12-07T04:56:12;4.30;99.90
24448;DHT22;13348;50.984;5.822;2022-12-07T04:58:38;4.30;99.90
24448;DHT22;13348;50.984;5.822;2022-12-07T05:01:07;4.20;99.90
24448;DHT22;13348;50.984;5.822;2022-12-07T05:03:34;4.20;99.90
24448;DHT22;13348;50.984;5.822;2022-12-07T05:06:00;4.10;99.90
24448;DHT22;13348;50.984;5.822;2022-12-07T05:08:27;4.00;99.90
24448;DHT22;13348;50.984;5.822;2022-12-07T05:10:54;4.00;99.90
24448;DHT22;13348;50.984;5.822;2022-12-07T05:13:21;4.00;99.90
24448;DHT22;13348;50.984;5.822;2022-12-07T05:15:48;4.10;99.90
24448;DHT22;13348;50.984;5.822;2022-12-07T05:18:16;4.10;99.90
24448;DHT22;13348;50.984;5.822;2022-12-07T05:20:43;4.20;99.90
24448;DHT22;13348;50.984;5.822;2022-12-07T05:23:11;4.30;99.90
24448;DHT22;13348;50.984;5.822;2022-12-07T05:25:38;4.30;99.90
24448;DHT22;13348;50.984;5.822;2022-12-07T05:28:05;4.30;99.90
24448;DHT22;13348;50.984;5.822;2022-12-07T05:30:32;4.40;99.90
24448;DHT22;13348;50.984;5.822;2022-12-07T05:32:59;4.40;99.90
24448;DHT22;13348;50.984;5.822;2022-12-07T05:35:27;4.30;99.90
24448;DHT22;13348;50.984;5.822;2022-12-07T05:37:54;4.40;99.90
24448;DHT22;13348;50.984;5.822;2022-12-07T05:40:22;4.30;99.90
24448;DHT22;13348;50.984;5.822;2022-12-07T05:42:49;4.30;99.90
24448;DHT22;13348;50.984;5.822;2022-12-07T05:45:16;4.30;99.90
24448;DHT22;13348;50.984;5.822;2022-12-07T05:47:43;4.30;99.90
24448;DHT22;13348;50.984;5.822;2022-12-07T05:50:10;4.30;99.90
24448;DHT22;13348;50.984;5.822;2022-12-07T05:52:38;4.30;99.90
24448;DHT22;13348;50.984;5.822;2022-12-07T05:55:06;4.30;99.90
24448;DHT22;13348;50.984;5.822;2022-12-07T05:57:33;4.40;99.90
24448;DHT22;13348;50.984;5.822;2022-12-07T06:00:00;4.40;99.90
24448;DHT22;13348;50.984;5.822;2022-12-07T06:02:26;4.40;99.90
24448;DHT22;13348;50.984;5.822;2022-12-07T06:04:53;4.40;99.90
24448;DHT22;13348;50.984;5.822;2022-12-07T06:07:19;4.40;99.90
24448;DHT22;13348;50.984;5.822;2022-12-07T06:09:48;4.30;99.90
24448;DHT22;13348;50.984;5.822;2022-12-07T06:12:14;4.30;99.90
24448;DHT22;13348;50.984;5.822;2022-12-07T06:14:59;4.30;99.90
24448;DHT22;13348;50.984;5.822;2022-12-07T06:17:26;4.30;99.90
24448;DHT22;13348;50.984;5.822;2022-12-07T06:19:52;4.30;99.90
24448;DHT22;13348;50.984;5.822;2022-12-07T06:22:19;4.30;99.90
24448;DHT22;13348;50.984;5.822;2022-12-07T06:24:48;4.30;99.90
24448;DHT22;13348;50.984;5.822;2022-12-07T06:27:15;4.20;99.90
24448;DHT22;13348;50.984;5.822;2022-12-07T06:29:41;4.20;99.90
24448;DHT22;13348;50.984;5.822;2022-12-07T06:32:08;4.20;99.90
24448;DHT22;13348;50.984;5.822;2022-12-07T06:34:36;4.30;99.90
24448;DHT22;13348;50.984;5.822;2022-12-07T06:37:03;4.30;99.90
24448;DHT22;13348;50.984;5.822;2022-12-07T06:39:30;4.30;99.90
24448;DHT22;13348;50.984;5.822;2022-12-07T06:41:58;4.30;99.90
24448;DHT22;13348;50.984;5.822;2022-12-07T06:44:25;4.30;99.90
24448;DHT22;13348;50.984;5.822;2022-12-07T06:46:52;4.30;99.90
24448;DHT22;13348;50.984;5.822;2022-12-07T06:49:20;4.30;99.90
24448;DHT22;13348;50.984;5.822;2022-12-07T06:51:47;4.30;99.90
24448;DHT22;13348;50.984;5.822;2022-12-07T06:54:14;4.30;99.90
24448;DHT22;13348;50.984;5.822;2022-12-07T06:56:41;4.30;99.90
24448;DHT22;13348;50.984;5.822;2022-12-07T06:59:09;4.30;99.90
24448;DHT22;13348;50.984;5.822;2022-12-07T07:01:36;4.30;99.90
24448;DHT22;13348;50.984;5.822;2022-12-07T07:04:03;4.20;99.90
24448;DHT22;13348;50.984;5.822;2022-12-07T07:06:30;4.20;99.90
24448;DHT22;13348;50.984;5.822;2022-12-07T07:08:57;4.20;99.90
24448;DHT22;13348;50.984;5.822;2022-12-07T07:11:24;4.20;99.90
24448;DHT22;13348;50.984;5.822;2022-12-07T07:13:51;4.20;99.90
24448;DHT22;13348;50.984;5.822;2022-12-07T07:16:20;4.10;99.90
24448;DHT22;13348;50.984;5.822;2022-12-07T07:18:47;4.10;99.90
24448;DHT22;13348;50.984;5.822;2022-12-07T07:21:14;4.00;99.90
24448;DHT22;13348;50.984;5.822;2022-12-07T07:23:41;4.00;99.90
24448;DHT22;13348;50.984;5.822;2022-12-07T07:26:08;4.00;99.90
24448;DHT22;13348;50.984;5.822;2022-12-07T07:28:35;4.00;99.90
24448;DHT22;13348;50.984;5.822;2022-12-07T07:31:02;4.00;99.90
24448;DHT22;13348;50.984;5.822;2022-12-07T07:33:30;4.00;99.90
24448;DHT22;13348;50.984;5.822;2022-12-07T07:35:57;4.00;99.90
24448;DHT22;13348;50.984;5.822;2022-12-07T07:38:24;4.10;99.90
24448;DHT22;13348;50.984;5.822;2022-12-07T07:40:51;4.00;99.90
24448;DHT22;13348;50.984;5.822;2022-12-07T07:43:18;3.90;99.90
24448;DHT22;13348;50.984;5.822;2022-12-07T07:45:44;3.80;99.90
24448;DHT22;13348;50.984;5.822;2022-12-07T07:48:11;3.70;99.90
24448;DHT22;13348;50.984;5.822;2022-12-07T07:50:40;3.60;99.90
24448;DHT22;13348;50.984;5.822;2022-12-07T07:53:07;3.50;99.90
24448;DHT22;13348;50.984;5.822;2022-12-07T07:55:33;3.40;99.90
24448;DHT22;13348;50.984;5.822;2022-12-07T07:58:00;3.40;99.90
24448;DHT22;13348;50.984;5.822;2022-12-07T08:00:27;3.40;99.90
24448;DHT22;13348;50.984;5.822;2022-12-07T08:02:54;3.40;99.90
24448;DHT22;13348;50.984;5.822;2022-12-07T08:05:21;3.40;99.90
24448;DHT22;13348;50.984;5.822;2022-12-07T08:07:49;3.50;99.90
24448;DHT22;13348;50.984;5.822;2022-12-07T08:10:16;3.60;99.90
24448;DHT22;13348;50.984;5.822;2022-12-07T08:12:43;3.60;99.90
24448;DHT22;13348;50.984;5.822;2022-12-07T08:15:28;3.60;99.90
24448;DHT22;13348;50.984;5.822;2022-12-07T08:17:55;3.50;99.90
24448;DHT22;13348;50.984;5.822;2022-12-07T08:20:22;3.60;99.90
24448;DHT22;13348;50.984;5.822;2022-12-07T08:22:51;3.50;99.90
24448;DHT22;13348;50.984;5.822;2022-12-07T08:25:17;3.50;99.90
24448;DHT22;13348;50.984;5.822;2022-12-07T08:27:44;3.60;99.90
24448;DHT22;13348;50.984;5.822;2022-12-07T08:30:11;3.50;99.90
24448;DHT22;13348;50.984;5.822;2022-12-07T08:32:39;3.50;99.90
24448;DHT22;13348;50.984;5.822;2022-12-07T08:35:06;3.70;99.90
24448;DHT22;13348;50.984;5.822;2022-12-07T08:37:33;3.70;99.90
24448;DHT22;13348;50.984;5.822;2022-12-07T08:40:01;3.70;99.90
24448;DHT22;13348;50.984;5.822;2022-12-07T08:42:28;3.80;99.90
24448;DHT22;13348;50.984;5.822;2022-12-07T08:45:03;3.80;99.90
24448;DHT22;13348;50.984;5.822;2022-12-07T08:47:30;3.90;99.90
24448;DHT22;13348;50.984;5.822;2022-12-07T08:49:57;4.00;99.90
24448;DHT22;13348;50.984;5.822;2022-12-07T08:52:29;4.00;99.90
24448;DHT22;13348;50.984;5.822;2022-12-07T08:54:56;3.90;99.90
24448;DHT22;13348;50.984;5.822;2022-12-07T08:57:24;3.90;99.90
24448;DHT22;13348;50.984;5.822;2022-12-07T08:59:51;4.00;99.90
24448;DHT22;13348;50.984;5.822;2022-12-07T09:02:18;4.00;99.90
24448;DHT22;13348;50.984;5.822;2022-12-07T09:04:45;4.00;99.90
24448;DHT22;13348;50.984;5.822;2022-12-07T09:07:12;4.00;99.90
24448;DHT22;13348;50.984;5.822;2022-12-07T09:09:39;4.00;99.90
24448;DHT22;13348;50.984;5.822;2022-12-07T09:12:07;4.00;99.90
24448;DHT22;13348;50.984;5.822;2022-12-07T09:14:35;4.10;99.90
24448;DHT22;13348;50.984;5.822;2022-12-07T09:17:06;4.10;99.90
24448;DHT22;13348;50.984;5.822;2022-12-07T09:19:33;4.10;99.90
24448;DHT22;13348;50.984;5.822;2022-12-07T09:22:00;4.10;99.90
24448;DHT22;13348;50.984;5.822;2022-12-07T09:24:27;4.20;99.90
24448;DHT22;13348;50.984;5.822;2022-12-07T09:26:54;4.20;99.90
24448;DHT22;13348;50.984;5.822;2022-12-07T09:29:21;4.20;99.90
24448;DHT22;13348;50.984;5.822;2022-12-07T09:31:49;4.20;99.90
24448;DHT22;13348;50.984;5.822;2022-12-07T09:34:16;4.40;99.90
24448;DHT22;13348;50.984;5.822;2022-12-07T09:36:43;4.40;99.90
24448;DHT22;13348;50.984;5.822;2022-12-07T09:39:10;4.40;99.90
24448;DHT22;13348;50.984;5.822;2022-12-07T09:41:37;4.50;99.90
24448;DHT22;13348;50.984;5.822;2022-12-07T09:44:05;4.40;99.90
24448;DHT22;13348;50.984;5.822;2022-12-07T09:46:34;4.40;99.90
24448;DHT22;13348;50.984;5.822;2022-12-07T09:49:04;4.40;99.90
24448;DHT22;13348;50.984;5.822;2022-12-07T09:51:31;4.30;99.90
24448;DHT22;13348;50.984;5.822;2022-12-07T09:53:58;4.30;99.90
24448;DHT22;13348;50.984;5.822;2022-12-07T09:56:28;4.30;99.90
24448;DHT22;13348;50.984;5.822;2022-12-07T09:58:57;4.30;99.90
24448;DHT22;13348;50.984;5.822;2022-12-07T10:01:28;4.50;99.90
24448;DHT22;13348;50.984;5.822;2022-12-07T10:03:59;5.10;99.90
24448;DHT22;13348;50.984;5.822;2022-12-07T10:06:29;5.80;99.90
24448;DHT22;13348;50.984;5.822;2022-12-07T10:08:56;6.20;99.90
24448;DHT22;13348;50.984;5.822;2022-12-07T10:11:23;6.70;99.90
24448;DHT22;13348;50.984;5.822;2022-12-07T10:13:51;6.80;99.90
24448;DHT22;13348;50.984;5.822;2022-12-07T10:19:20;7.30;99.90
24448;DHT22;13348;50.984;5.822;2022-12-07T10:22:04;7.50;99.90
24448;DHT22;13348;50.984;5.822;2022-12-07T10:24:32;7.60;99.90
24448;DHT22;13348;50.984;5.822;2022-12-07T10:26:59;8.10;99.90
24448;DHT22;13348;50.984;5.822;2022-12-07T10:29:28;8.30;99.90
24448;DHT22;13348;50.984;5.822;2022-12-07T10:31:56;8.20;99.90
24448;DHT22;13348;50.984;5.822;2022-12-07T10:34:24;8.40;99.90
24448;DHT22;13348;50.984;5.822;2022-12-07T10:36:51;8.60;99.90
24448;DHT22;13348;50.984;5.822;2022-12-07T10:39:20;8.30;99.90
24448;DHT22;13348;50.984;5.822;2022-12-07T10:41:57;8.30;99.90
24448;DHT22;13348;50.984;5.822;2022-12-07T10:44:25;8.80;99.90
24448;DHT22;13348;50.984;5.822;2022-12-07T10:47:04;8.70;99.90
24448;DHT22;13348;50.984;5.822;2022-12-07T10:52:24;9.50;99.90
24448;DHT22;13348;50.984;5.822;2022-12-07T10:55:00;9.50;99.90
24448;DHT22;13348;50.984;5.822;2022-12-07T10:57:33;9.80;99.90
24448;DHT22;13348;50.984;5.822;2022-12-07T11:00:07;10.40;99.90
24448;DHT22;13348;50.984;5.822;2022-12-07T11:02:39;10.70;99.90
24448;DHT22;13348;50.984;5.822;2022-12-07T11:05:11;10.60;99.90
24448;DHT22;13348;50.984;5.822;2022-12-07T11:07:44;10.40;99.90
24448;DHT22;13348;50.984;5.822;2022-12-07T11:10:17;10.20;99.90
24448;DHT22;13348;50.984;5.822;2022-12-07T11:12:55;10.00;99.90
24448;DHT22;13348;50.984;5.822;2022-12-07T11:15:26;9.90;99.90
24448;DHT22;13348;50.984;5.822;2022-12-07T11:17:56;9.80;99.90
24448;DHT22;13348;50.984;5.822;2022-12-07T11:20:30;9.40;99.90
24448;DHT22;13348;50.984;5.822;2022-12-07T11:23:00;8.90;99.90
24448;DHT22;13348;50.984;5.822;2022-12-07T11:25:30;9.00;99.90
24448;DHT22;13348;50.984;5.822;2022-12-07T11:28:02;9.40;99.90
24448;DHT22;13348;50.984;5.822;2022-12-07T11:30:33;9.50;99.90
24448;DHT22;13348;50.984;5.822;2022-12-07T11:33:04;9.00;99.90
24448;DHT22;13348;50.984;5.822;2022-12-07T11:35:36;8.50;99.90
24448;DHT22;13348;50.984;5.822;2022-12-07T11:38:07;8.10;99.90
24448;DHT22;13348;50.984;5.822;2022-12-07T11:40:38;7.50;99.90
24448;DHT22;13348;50.984;5.822;2022-12-07T11:43:09;7.30;99.90
24448;DHT22;13348;50.984;5.822;2022-12-07T11:45:40;7.90;99.90
24448;DHT22;13348;50.984;5.822;2022-12-07T11:48:10;8.40;99.90
24448;DHT22;13348;50.984;5.822;2022-12-07T11:50:39;8.60;99.90
24448;DHT22;13348;50.984;5.822;2022-12-07T11:53:10;9.10;99.90
24448;DHT22;13348;50.984;5.822;2022-12-07T11:55:43;9.20;99.90
24448;DHT22;13348;50.984;5.822;2022-12-07T11:58:20;9.10;99.90
24448;DHT22;13348;50.984;5.822;2022-12-07T12:00:49;8.80;99.90
24448;DHT22;13348;50.984;5.822;2022-12-07T12:03:19;8.70;99.90
24448;DHT22;13348;50.984;5.822;2022-12-07T12:05:47;8.80;99.90
24448;DHT22;13348;50.984;5.822;2022-12-07T12:08:16;8.60;99.90
24448;DHT22;13348;50.984;5.822;2022-12-07T12:10:50;8.40;99.90
24448;DHT22;13348;50.984;5.822;2022-12-07T12:16:06;8.70;99.90
24448;DHT22;13348;50.984;5.822;2022-12-07T12:18:39;8.40;99.90
24448;DHT22;13348;50.984;5.822;2022-12-07T12:21:09;8.50;99.90
24448;DHT22;13348;50.984;5.822;2022-12-07T12:23:39;8.50;99.90
24448;DHT22;13348;50.984;5.822;2022-12-07T12:26:13;8.50;99.90
24448;DHT22;13348;50.984;5.822;2022-12-07T12:28:41;8.30;99.90
24448;DHT22;13348;50.984;5.822;2022-12-07T12:31:16;8.10;99.90
24448;DHT22;13348;50.984;5.822;2022-12-07T12:33:58;7.70;99.90
24448;DHT22;13348;50.984;5.822;2022-12-07T12:36:26;7.40;99.90
24448;DHT22;13348;50.984;5.822;2022-12-07T12:39:09;7.40;99.90
24448;DHT22;13348;50.984;5.822;2022-12-07T12:41:56;7.30;99.90
24448;DHT22;13348;50.984;5.822;2022-12-07T12:47:40;7.20;99.90
24448;DHT22;13348;50.984;5.822;2022-12-07T12:50:17;7.30;99.90
24448;DHT22;13348;50.984;5.822;2022-12-07T12:52:49;7.20;99.90
24448;DHT22;13348;50.984;5.822;2022-12-07T13:00:46;7.10;99.90
24448;DHT22;13348;50.984;5.822;2022-12-07T13:03:20;7.00;99.90
24448;DHT22;13348;50.984;5.822;2022-12-07T13:05:48;6.90;99.90
24448;DHT22;13348;50.984;5.822;2022-12-07T13:08:35;6.90;99.90
24448;DHT22;13348;50.984;5.822;2022-12-07T13:11:17;7.00;99.90
24448;DHT22;13348;50.984;5.822;2022-12-07T13:13:44;7.00;99.90
24448;DHT22;13348;50.984;5.822;2022-12-07T13:18:58;6.90;99.90
24448;DHT22;13348;50.984;5.822;2022-12-07T13:21:41;6.80;99.90
24448;DHT22;13348;50.984;5.822;2022-12-07T13:24:07;6.80;99.90
24448;DHT22;13348;50.984;5.822;2022-12-07T13:26:37;6.70;99.90
24448;DHT22;13348;50.984;5.822;2022-12-07T13:29:05;6.80;99.90
24448;DHT22;13348;50.984;5.822;2022-12-07T13:31:34;6.70;99.90
24448;DHT22;13348;50.984;5.822;2022-12-07T13:34:03;6.70;99.90
24448;DHT22;13348;50.984;5.822;2022-12-07T13:36:31;6.60;99.90
24448;DHT22;13348;50.984;5.822;2022-12-07T13:39:10;6.70;99.90
24448;DHT22;13348;50.984;5.822;2022-12-07T13:41:40;6.60;99.90
24448;DHT22;13348;50.984;5.822;2022-12-07T13:44:09;6.60;99.90
24448;DHT22;13348;50.984;5.822;2022-12-07T13:46:41;6.60;99.90
24448;DHT22;13348;50.984;5.822;2022-12-07T13:49:19;6.70;99.90
24448;DHT22;13348;50.984;5.822;2022-12-07T13:51:47;6.60;99.90
24448;DHT22;13348;50.984;5.822;2022-12-07T13:54:14;6.60;99.90
24448;DHT22;13348;50.984;5.822;2022-12-07T13:56:41;6.50;99.90
24448;DHT22;13348;50.984;5.822;2022-12-07T13:59:10;6.50;99.90
24448;DHT22;13348;50.984;5.822;2022-12-07T14:01:39;6.40;99.90
24448;DHT22;13348;50.984;5.822;2022-12-07T14:04:29;6.50;99.90
24448;DHT22;13348;50.984;5.822;2022-12-07T14:06:57;6.50;99.90
24448;DHT22;13348;50.984;5.822;2022-12-07T14:09:24;6.50;99.90
24448;DHT22;13348;50.984;5.822;2022-12-07T14:11:52;6.50;99.90
24448;DHT22;13348;50.984;5.822;2022-12-07T14:14:20;6.40;99.90
24448;DHT22;13348;50.984;5.822;2022-12-07T14:16:57;6.40;99.90
24448;DHT22;13348;50.984;5.822;2022-12-07T14:19:45;6.30;99.90
24448;DHT22;13348;50.984;5.822;2022-12-07T14:22:19;6.30;99.90
24448;DHT22;13348;50.984;5.822;2022-12-07T14:24:46;6.30;99.90
24448;DHT22;13348;50.984;5.822;2022-12-07T14:27:17;6.30;99.90
24448;DHT22;13348;50.984;5.822;2022-12-07T14:29:45;6.20;99.90
24448;DHT22;13348;50.984;5.822;2022-12-07T14:32:22;6.30;99.90
24448;DHT22;13348;50.984;5.822;2022-12-07T14:34:58;6.50;99.90
24448;DHT22;13348;50.984;5.822;2022-12-07T14:37:26;6.70;99.90
24448;DHT22;13348;50.984;5.822;2022-12-07T14:39:53;6.70;99.90
24448;DHT22;13348;50.984;5.822;2022-12-07T14:42:19;6.60;99.90
24448;DHT22;13348;50.984;5.822;2022-12-07T14:44:46;6.30;99.90
24448;DHT22;13348;50.984;5.822;2022-12-07T14:47:13;6.20;99.90
24448;DHT22;13348;50.984;5.822;2022-12-07T14:49:40;6.00;99.90
24448;DHT22;13348;50.984;5.822;2022-12-07T14:52:11;6.00;99.90
24448;DHT22;13348;50.984;5.822;2022-12-07T14:54:39;5.90;99.90
24448;DHT22;13348;50.984;5.822;2022-12-07T14:57:08;5.80;99.90
24448;DHT22;13348;50.984;5.822;2022-12-07T14:59:35;5.80;99.90
24448;DHT22;13348;50.984;5.822;2022-12-07T15:02:02;5.80;99.90
24448;DHT22;13348;50.984;5.822;2022-12-07T15:04:29;5.70;99.90
24448;DHT22;13348;50.984;5.822;2022-12-07T15:06:56;5.60;99.90
24448;DHT22;13348;50.984;5.822;2022-12-07T15:09:25;5.50;99.90
24448;DHT22;13348;50.984;5.822;2022-12-07T15:11:52;5.50;99.90
24448;DHT22;13348;50.984;5.822;2022-12-07T15:14:18;5.40;99.90
24448;DHT22;13348;50.984;5.822;2022-12-07T15:16:45;5.30;99.90
24448;DHT22;13348;50.984;5.822;2022-12-07T15:19:13;5.20;99.90
24448;DHT22;13348;50.984;5.822;2022-12-07T15:21:41;5.10;99.90
24448;DHT22;13348;50.984;5.822;2022-12-07T15:24:08;5.10;99.90
24448;DHT22;13348;50.984;5.822;2022-12-07T15:26:37;5.00;99.90
24448;DHT22;13348;50.984;5.822;2022-12-07T15:29:04;4.90;99.90
24448;DHT22;13348;50.984;5.822;2022-12-07T15:31:31;4.90;99.90
24448;DHT22;13348;50.984;5.822;2022-12-07T15:33:58;4.90;99.90
24448;DHT22;13348;50.984;5.822;2022-12-07T15:36:26;4.90;99.90
24448;DHT22;13348;50.984;5.822;2022-12-07T15:38:53;4.90;99.90
24448;DHT22;13348;50.984;5.822;2022-12-07T15:41:20;4.90;99.90
24448;DHT22;13348;50.984;5.822;2022-12-07T15:43:48;4.80;99.90
24448;DHT22;13348;50.984;5.822;2022-12-07T15:46:33;4.80;99.90
24448;DHT22;13348;50.984;5.822;2022-12-07T15:49:00;4.70;99.90
24448;DHT22;13348;50.984;5.822;2022-12-07T15:51:28;4.60;99.90
24448;DHT22;13348;50.984;5.822;2022-12-07T15:53:55;4.60;99.90
24448;DHT22;13348;50.984;5.822;2022-12-07T15:56:23;4.60;99.90
24448;DHT22;13348;50.984;5.822;2022-12-07T15:58:52;4.60;99.90
24448;DHT22;13348;50.984;5.822;2022-12-07T16:01:19;4.50;99.90
24448;DHT22;13348;50.984;5.822;2022-12-07T16:03:46;4.50;99.90
24448;DHT22;13348;50.984;5.822;2022-12-07T16:06:15;4.50;99.90
24448;DHT22;13348;50.984;5.822;2022-12-07T16:08:42;4.60;99.90
24448;DHT22;13348;50.984;5.822;2022-12-07T16:11:10;4.60;99.90
24448;DHT22;13348;50.984;5.822;2022-12-07T16:13:37;4.60;99.90
24448;DHT22;13348;50.984;5.822;2022-12-07T16:16:07;4.70;99.90
24448;DHT22;13348;50.984;5.822;2022-12-07T16:18:34;4.70;99.90